Time;durP1;ratioP1;P1;durP2;ratioP2;P2;SDS_P1;SDS_P2;PMS_P1;PMS_P2;Temp;Humidity;BMP_temperature;BMP_pressure;BME280_temperature;BME280_humidity;BME280_pressure;Samples;Min_cycle;Max_cycle;Signal;HPM_P1;HPM_P2
2022/11/11 00:01:41;;;;;;;14.13;2.45;;;;;;;14.95;55.44;102475.16;4928512;28;98955;-68
2022/11/11 00:04:07;;;;;;;9.27;2.47;;;;;;;14.90;55.67;102467.28;4927970;28;99103;-69
2022/11/11 00:06:35;;;;;;;15.68;2.28;;;;;;;14.87;55.68;102467.38;4930176;28;96772;-69
2022/11/11 00:09:02;;;;;;;11.25;2.45;;;;;;;14.89;55.61;102460.22;4926987;28;97873;-70
2022/11/11 00:11:28;;;;;;;14.88;2.40;;;;;;;14.83;55.91;102467.50;4926173;28;97827;-68
2022/11/11 00:13:55;;;;;;;9.55;2.38;;;;;;;14.87;55.77;102463.84;4930484;28;98954;-67
2022/11/11 00:16:22;;;;;;;13.70;2.50;;;;;;;14.79;55.91;102466.69;4925967;28;98959;-70
2022/11/11 00:27:17;;;;;;;10.90;2.20;;;;;;;14.60;56.34;102495.56;4854652;28;97101;-67
2022/11/11 00:29:46;;;;;;;11.75;2.72;;;;;;;14.61;56.29;102494.66;4891460;28;97838;-67
2022/11/11 00:32:27;;;;;;;11.20;1.88;;;;;;;14.51;56.53;102494.88;4927551;28;99069;-68
2022/11/11 00:37:39;;;;;;;9.63;2.20;;;;;;;14.63;56.33;102498.16;4928122;28;97162;-67
2022/11/11 00:40:09;;;;;;;14.32;2.75;;;;;;;14.49;56.61;102497.59;4929839;28;96913;-68
2022/11/11 00:42:36;;;;;;;10.50;2.30;;;;;;;14.65;56.14;102498.97;4930508;28;99113;-66
2022/11/11 00:45:03;;;;;;;11.18;2.35;;;;;;;14.57;56.47;102500.09;4932242;28;99603;-68
2022/11/11 00:53:00;;;;;;;14.13;2.53;;;;;;;14.35;56.76;102500.56;4931224;28;97208;-67
2022/11/11 00:55:28;;;;;;;12.70;2.40;;;;;;;14.63;56.32;102495.50;4929051;28;101333;-69
2022/11/11 00:57:54;;;;;;;10.07;2.60;;;;;;;14.63;56.19;102489.28;4931802;28;96899;-68
2022/11/11 01:00:21;;;;;;;13.68;2.50;;;;;;;14.50;56.27;102485.19;4927343;28;97074;-68
2022/11/11 01:02:47;;;;;;;9.25;2.33;;;;;;;14.39;56.70;102490.75;4933975;28;98912;-67
2022/11/11 01:05:14;;;;;;;10.23;2.70;;;;;;;14.30;57.13;102483.84;4930782;28;98978;-71
2022/11/11 01:07:40;;;;;;;16.35;2.60;;;;;;;14.39;56.90;102463.28;4931586;28;96828;-71
2022/11/11 01:10:07;;;;;;;10.27;2.35;;;;;;;14.45;56.66;102464.00;4931497;28;97225;-72
2022/11/11 01:12:35;;;;;;;9.30;2.22;;;;;;;14.32;57.05;102458.06;4931008;28;99851;-72
2022/11/11 01:15:02;;;;;;;8.90;2.50;;;;;;;14.29;57.00;102458.16;4931617;28;98446;-70
2022/11/11 01:17:31;;;;;;;13.13;2.65;;;;;;;14.19;57.49;102456.59;4931096;28;96915;-71
2022/11/11 01:19:57;;;;;;;11.93;2.60;;;;;;;14.15;57.42;102452.28;4931853;28;96967;-72
2022/11/11 01:22:24;;;;;;;10.75;2.95;;;;;;;14.08;57.57;102447.16;4932412;28;99414;-71
2022/11/11 01:24:50;;;;;;;10.90;2.55;;;;;;;14.31;57.00;102451.00;4927994;28;99284;-72
2022/11/11 01:27:17;;;;;;;12.45;2.35;;;;;;;14.21;57.30;102448.59;4932365;28;98655;-72
2022/11/11 01:29:45;;;;;;;10.63;2.33;;;;;;;14.21;57.12;102445.94;4930393;28;97384;-72
2022/11/11 01:32:11;;;;;;;13.30;2.60;;;;;;;14.09;57.60;102447.13;4928884;28;99142;-72
2022/11/11 01:34:38;;;;;;;9.32;2.40;;;;;;;14.24;57.09;102446.72;4932178;28;98844;-71
2022/11/11 01:37:04;;;;;;;9.27;2.75;;;;;;;14.26;56.90;102441.38;4931397;28;96828;-71
2022/11/11 01:39:31;;;;;;;11.75;2.53;;;;;;;14.28;56.85;102445.78;4930513;28;97081;-71
2022/11/11 01:41:58;;;;;;;13.52;2.40;;;;;;;14.18;57.14;102454.84;4930179;28;98002;-72
2022/11/11 01:44:46;;;;;;;8.45;2.28;;;;;;;14.28;56.89;102466.16;4932191;28;98586;-72
2022/11/11 01:47:13;;;;;;;9.25;2.30;;;;;;;14.35;56.71;102466.00;4934929;28;97054;-72
2022/11/11 01:49:47;;;;;;;9.48;2.63;;;;;;;14.28;56.54;102461.72;4932115;28;96999;-71
2022/11/11 01:52:19;;;;;;;10.10;2.33;;;;;;;14.25;56.74;102451.16;4930632;28;100151;-72
2022/11/11 01:54:49;;;;;;;10.77;2.20;;;;;;;14.26;56.63;102454.69;4928761;28;99087;-73
2022/11/11 01:57:22;;;;;;;7.50;2.20;;;;;;;14.36;56.53;102453.56;4930335;28;97599;-72
2022/11/11 01:59:59;;;;;;;14.10;2.67;;;;;;;14.28;56.64;102461.72;4929943;28;96907;-71
2022/11/11 02:02:32;;;;;;;8.00;2.33;;;;;;;14.26;56.76;102473.28;4926064;28;99201;-72
2022/11/11 02:07:45;;;;;;;9.03;2.37;;;;;;;14.28;56.55;102479.47;4926777;28;98578;-70
2022/11/11 02:10:12;;;;;;;14.60;2.72;;;;;;;14.23;56.76;102478.69;4928447;28;98289;-69
2022/11/11 02:15:24;;;;;;;14.25;2.42;;;;;;;14.16;56.80;102493.91;4928970;28;97225;-69
2022/11/11 02:17:51;;;;;;;12.20;2.42;;;;;;;14.19;56.86;102492.94;4933275;28;97214;-68
2022/11/11 02:20:23;;;;;;;12.38;2.63;;;;;;;14.20;56.86;102497.38;4929883;28;97821;-69
2022/11/11 02:22:56;;;;;;;11.48;2.70;;;;;;;14.44;56.10;102498.63;4928782;28;99362;-68
2022/11/11 02:25:30;;;;;;;12.60;2.38;;;;;;;14.27;56.54;102498.97;4924586;28;99136;-68
2022/11/11 02:28:00;;;;;;;11.02;3.10;;;;;;;14.38;56.14;102517.38;4929418;28;98539;-68
2022/11/11 02:30:27;;;;;;;13.75;2.65;;;;;;;14.50;55.97;102515.31;4928872;28;98009;-68
2022/11/11 02:32:54;;;;;;;7.13;2.22;;;;;;;14.54;55.70;102509.00;4928838;28;99187;-69
2022/11/11 02:35:22;;;;;;;13.85;2.70;;;;;;;14.28;56.14;102506.06;4928561;28;99667;-69
2022/11/11 02:37:51;;;;;;;13.38;2.53;;;;;;;14.47;55.99;102503.88;4931011;28;96914;-68
2022/11/11 02:40:24;;;;;;;12.45;2.35;;;;;;;14.48;55.73;102506.50;4929431;28;97288;-70
2022/11/11 02:42:52;;;;;;;9.55;2.60;;;;;;;14.33;56.20;102501.50;4931556;28;100107;-69
2022/11/11 02:45:18;;;;;;;9.40;2.38;;;;;;;14.46;55.89;102502.09;4924575;28;97882;-68
2022/11/11 02:47:45;;;;;;;11.27;2.80;;;;;;;14.46;55.98;102491.47;4930138;28;99675;-68
2022/11/11 02:50:11;;;;;;;11.25;2.55;;;;;;;14.24;56.41;102491.94;4931605;28;96856;-67
2022/11/11 02:52:38;;;;;;;9.98;2.30;;;;;;;14.30;56.17;102488.28;4929784;28;99431;-68
2022/11/11 02:55:06;;;;;;;11.77;2.25;;;;;;;14.24;56.33;102488.44;4928316;28;98889;-67
2022/11/11 02:57:35;;;;;;;11.18;2.72;;;;;;;14.29;56.44;102489.19;4923848;28;96833;-67
2022/11/11 03:00:04;;;;;;;7.75;2.50;;;;;;;14.26;56.39;102503.41;4924641;28;97007;-68
2022/11/11 03:02:31;;;;;;;16.95;3.10;;;;;;;14.41;56.16;102504.00;4929388;28;101297;-68
2022/11/11 03:04:58;;;;;;;10.15;2.50;;;;;;;14.51;55.69;102500.22;4924173;28;98595;-68
2022/11/11 03:07:26;;;;;;;8.90;2.42;;;;;;;14.51;55.63;102500.22;4930009;28;96830;-68
2022/11/11 03:09:52;;;;;;;10.43;2.35;;;;;;;14.53;55.75;102493.94;4930128;28;97740;-68
2022/11/11 03:12:18;;;;;;;12.00;2.22;;;;;;;14.43;55.73;102495.09;4930828;28;99157;-68
2022/11/11 03:14:46;;;;;;;7.88;2.67;;;;;;;14.41;55.97;102494.25;4930439;28;98919;-68
2022/11/11 03:21:03;;;;;;;11.80;2.33;;;;;;;14.43;55.69;102500.41;4928450;28;96952;-68
2022/11/11 03:22:43;;;;;;;14.38;2.45;;;;;;;14.40;56.09;102502.25;4928722;28;98547;-68
2022/11/11 03:27:54;;;;;;;6.75;2.47;;;;;;;14.47;55.72;102498.53;4932714;28;97090;-69
2022/11/11 03:30:21;;;;;;;7.90;2.25;;;;;;;14.55;55.44;102494.81;4931215;28;96666;-67
2022/11/11 03:32:49;;;;;;;10.07;3.13;;;;;;;14.28;56.01;102488.31;4930518;28;99389;-69
2022/11/11 03:35:15;;;;;;;10.15;2.60;;;;;;;14.17;56.60;102476.19;4930859;28;98805;-68
2022/11/11 03:40:26;;;;;;;8.90;2.78;;;;;;;14.02;57.01;102474.75;4930425;28;96900;-69
2022/11/11 03:42:52;;;;;;;12.25;3.13;;;;;;;13.82;57.45;102477.84;4929819;28;98960;-68
2022/11/11 03:45:19;;;;;;;8.55;2.70;;;;;;;13.86;57.62;102462.69;4930026;28;99077;-67
2022/11/11 03:47:46;;;;;;;9.57;3.13;;;;;;;14.00;57.07;102457.06;4929167;28;96843;-68
2022/11/11 03:50:13;;;;;;;9.07;2.58;;;;;;;13.83;57.52;102453.03;4930568;28;96781;-68
2022/11/11 03:52:41;;;;;;;10.57;3.22;;;;;;;13.91;57.11;102448.38;4930942;28;99210;-68
2022/11/11 03:55:08;;;;;;;9.50;3.03;;;;;;;13.73;57.72;102450.56;4928584;28;99219;-67
2022/11/11 03:57:38;;;;;;;7.18;2.58;;;;;;;13.98;57.16;102447.34;4928822;28;97004;-67
2022/11/11 04:00:06;;;;;;;9.98;3.47;;;;;;;13.91;57.08;102451.03;4929327;28;97104;-69
2022/11/11 04:10:46;;;;;;;11.70;2.40;;;;;;;13.87;57.44;102449.38;4927665;28;99038;-68
2022/11/11 04:16:06;;;;;;;13.32;3.05;;;;;;;13.81;57.59;102457.47;4927592;28;97496;-67
2022/11/11 04:21:44;;;;;;;9.23;2.75;;;;;;;13.60;57.94;102449.97;4905918;28;98792;-68
2022/11/11 04:26:58;;;;;;;8.57;2.78;;;;;;;13.69;58.01;102459.53;4929366;28;97125;-69
2022/11/11 04:29:27;;;;;;;6.18;2.55;;;;;;;13.60;58.24;102459.72;4931174;28;96868;-68
2022/11/11 04:34:37;;;;;;;16.55;3.85;;;;;;;13.57;57.99;102453.59;4932357;28;97199;-69
2022/11/11 04:37:05;;;;;;;10.57;2.78;;;;;;;13.72;57.91;102454.16;4931122;28;99326;-67
2022/11/11 04:42:16;;;;;;;11.00;2.85;;;;;;;13.57;58.13;102460.69;4930626;28;96837;-68
2022/11/11 04:47:28;;;;;;;12.35;2.90;;;;;;;13.80;57.28;102469.03;4927008;28;97642;-68
2022/11/11 04:49:55;;;;;;;13.32;3.45;;;;;;;13.82;57.38;102480.50;4932187;28;97320;-68
2022/11/11 04:52:28;;;;;;;9.93;3.15;;;;;;;13.80;57.27;102479.66;4929536;28;96999;-66
2022/11/11 04:57:42;;;;;;;11.10;2.70;;;;;;;14.14;56.30;102478.91;4931075;28;97001;-67
2022/11/11 05:00:11;;;;;;;9.95;2.40;;;;;;;14.09;56.35;102470.16;4930179;28;96981;-68
2022/11/11 05:05:21;;;;;;;8.23;2.47;;;;;;;14.19;56.06;102475.22;4928563;28;97229;-67
2022/11/11 05:10:33;;;;;;;9.00;2.50;;;;;;;14.11;56.29;102466.53;4928411;28;97008;-68
2022/11/11 05:21:20;;;;;;;11.73;3.22;;;;;;;14.00;56.17;102465.91;4925230;28;96810;-67
2022/11/11 05:26:32;;;;;;;7.05;2.40;;;;;;;13.96;56.30;102470.44;4927750;28;97641;-69
2022/11/11 05:28:59;;;;;;;7.50;2.63;;;;;;;13.96;56.24;102475.75;4930100;28;98904;-68
2022/11/11 05:31:25;;;;;;;9.43;3.05;;;;;;;14.14;56.02;102489.53;4930362;28;97644;-69
2022/11/11 05:33:52;;;;;;;11.13;2.58;;;;;;;14.17;55.83;102505.44;4930483;28;96844;-69
2022/11/11 05:36:18;;;;;;;8.02;2.13;;;;;;;14.05;56.10;102505.69;4931984;28;99423;-68
2022/11/11 05:38:45;;;;;;;11.40;2.92;;;;;;;14.08;56.04;102521.56;4930675;28;98817;-69
2022/11/11 05:41:13;;;;;;;6.35;2.33;;;;;;;14.00;56.15;102526.16;4933124;28;96918;-68
2022/11/11 05:43:39;;;;;;;6.90;2.15;;;;;;;14.10;55.89;102530.41;4931049;28;96912;-69
2022/11/11 05:46:06;;;;;;;13.10;3.28;;;;;;;14.22;55.60;102535.44;4932134;28;99587;-68
2022/11/11 05:48:32;;;;;;;11.02;2.55;;;;;;;14.02;55.73;102527.03;4931933;28;100398;-69
2022/11/11 05:50:59;;;;;;;10.73;3.20;;;;;;;14.17;55.57;102522.25;4930847;28;96751;-71
2022/11/11 05:53:27;;;;;;;11.20;3.08;;;;;;;14.11;55.77;102518.88;4932247;28;96945;-72
2022/11/11 05:55:53;;;;;;;12.05;2.80;;;;;;;14.09;55.99;102508.25;4931287;28;99105;-70
2022/11/11 05:58:21;;;;;;;13.57;2.88;;;;;;;14.11;55.70;102514.38;4932221;28;101269;-72
2022/11/11 06:00:50;;;;;;;9.45;2.60;;;;;;;14.10;55.72;102515.31;4930555;28;96768;-71
2022/11/11 06:03:16;;;;;;;12.80;3.17;;;;;;;14.19;55.51;102515.09;4927581;28;97152;-71
2022/11/11 06:05:43;;;;;;;12.90;3.38;;;;;;;14.38;55.00;102514.72;4930281;28;98356;-71
2022/11/11 06:08:09;;;;;;;6.53;2.75;;;;;;;14.17;55.58;102516.94;4925676;28;100945;-70
2022/11/11 06:10:37;;;;;;;6.22;2.33;;;;;;;14.19;55.44;102515.09;4923222;28;98293;-72
2022/11/11 06:13:08;;;;;;;9.48;2.30;;;;;;;14.21;55.17;102518.59;4926253;28;97031;-72
2022/11/11 06:15:37;;;;;;;10.65;2.45;;;;;;;14.13;55.37;102525.00;4922618;28;99187;-71
2022/11/11 06:18:05;;;;;;;8.07;2.45;;;;;;;14.24;55.24;102521.19;4927176;28;100952;-72
2022/11/11 06:20:34;;;;;;;17.05;2.85;;;;;;;14.24;55.06;102525.66;4928024;28;96887;-70
2022/11/11 06:23:01;;;;;;;7.60;2.35;;;;;;;14.24;55.11;102536.28;4922324;28;98947;-72
2022/11/11 06:28:14;;;;;;;8.40;2.53;;;;;;;13.95;55.89;102529.81;4927145;28;97302;-71
2022/11/11 06:30:45;;;;;;;11.55;2.85;;;;;;;13.89;56.01;102535.25;4929063;28;97097;-73
2022/11/11 06:33:12;;;;;;;9.75;2.60;;;;;;;13.92;55.79;102532.53;4927351;28;96912;-72
2022/11/11 06:35:40;;;;;;;5.32;2.15;;;;;;;14.03;55.65;102534.97;4931288;28;101156;-72
2022/11/11 06:38:07;;;;;;;8.07;2.45;;;;;;;14.27;55.09;102538.88;4931364;28;97954;-71
2022/11/11 06:40:34;;;;;;;7.13;2.42;;;;;;;14.12;55.36;102542.72;4927532;28;97071;-71
2022/11/11 06:43:01;;;;;;;7.47;2.53;;;;;;;14.24;55.31;102538.94;4927075;28;96905;-71
2022/11/11 06:45:29;;;;;;;9.30;2.33;;;;;;;14.30;54.92;102544.13;4929919;28;99241;-73
2022/11/11 06:47:57;;;;;;;5.47;2.17;;;;;;;14.41;54.79;102542.13;4929624;28;97830;-73
2022/11/11 06:50:24;;;;;;;8.50;2.75;;;;;;;14.21;54.96;102541.66;4929328;28;98711;-72
2022/11/11 06:52:51;;;;;;;8.80;2.38;;;;;;;14.28;54.62;102540.63;4931257;28;98746;-73
2022/11/11 06:55:17;;;;;;;8.88;2.80;;;;;;;14.43;54.63;102531.47;4929812;28;99251;-71
2022/11/11 06:57:44;;;;;;;8.35;2.47;;;;;;;14.47;54.28;102526.03;4929950;28;99465;-72
2022/11/11 07:00:11;;;;;;;14.10;3.55;;;;;;;14.33;54.64;102528.97;4933756;28;97114;-72
2022/11/11 07:02:38;;;;;;;13.43;3.00;;;;;;;14.56;53.79;102520.50;4929167;28;97071;-72
2022/11/11 07:05:06;;;;;;;12.98;3.72;;;;;;;14.36;54.30;102528.03;4929667;28;99577;-73
2022/11/11 07:07:33;;;;;;;14.10;2.97;;;;;;;14.47;54.07;102523.34;4929097;28;99334;-71
2022/11/11 07:10:00;;;;;;;7.03;2.60;;;;;;;14.57;53.86;102532.84;4928177;28;96883;-71
2022/11/11 07:12:26;;;;;;;9.90;2.53;;;;;;;14.38;54.19;102542.19;4924150;28;97195;-71
2022/11/11 07:14:53;;;;;;;8.95;2.15;;;;;;;14.61;53.70;102539.00;4926740;28;99547;-71
2022/11/11 07:17:20;;;;;;;14.25;2.53;;;;;;;14.52;53.72;102528.56;4931360;28;99216;-72
2022/11/11 07:19:46;;;;;;;19.15;2.88;;;;;;;14.65;53.36;102530.03;4930733;28;97106;-72
2022/11/11 07:22:14;;;;;;;10.38;2.85;;;;;;;14.60;53.53;102527.47;4929976;28;96925;-73
2022/11/11 07:24:43;;;;;;;11.02;2.65;;;;;;;14.51;53.72;102527.69;4924869;28;100662;-73
2022/11/11 07:27:10;;;;;;;14.13;2.85;;;;;;;14.58;53.33;102531.06;4928484;28;98868;-72
2022/11/11 07:29:37;;;;;;;14.40;4.28;;;;;;;14.62;53.73;102528.31;4924104;28;97301;-72
2022/11/11 07:32:04;;;;;;;12.50;2.65;;;;;;;14.60;53.53;102537.25;4926545;28;97328;-72
2022/11/11 07:34:30;;;;;;;9.20;3.08;;;;;;;14.46;53.93;102545.53;4925482;28;97912;-72
2022/11/11 07:36:57;;;;;;;14.50;2.53;;;;;;;14.52;53.79;102550.72;4925046;28;99522;-74
2022/11/11 07:39:25;;;;;;;11.27;3.13;;;;;;;14.46;53.86;102550.00;4927361;28;97350;-73
2022/11/11 07:41:51;;;;;;;15.10;3.17;;;;;;;14.29;54.26;102563.66;4925191;28;97465;-72
2022/11/11 07:44:18;;;;;;;6.78;2.67;;;;;;;14.36;54.14;102567.91;4926603;28;99467;-72
2022/11/11 07:46:44;;;;;;;12.65;3.35;;;;;;;14.53;53.70;102563.13;4925460;28;98784;-72
2022/11/11 07:49:11;;;;;;;7.53;2.97;;;;;;;14.67;53.54;102576.09;4926495;28;99155;-71
2022/11/11 07:51:38;;;;;;;11.93;3.15;;;;;;;14.64;53.17;102568.16;4927213;28;97279;-72
2022/11/11 07:54:05;;;;;;;10.82;3.40;;;;;;;14.94;52.74;102571.91;4932450;28;98969;-73
2022/11/11 07:56:33;;;;;;;13.13;3.47;;;;;;;14.62;53.39;102573.56;4931914;28;97702;-75
2022/11/11 07:58:59;;;;;;;16.05;3.90;;;;;;;14.89;52.58;102573.81;4930957;28;97858;-72
2022/11/11 08:01:26;;;;;;;8.85;2.78;;;;;;;14.96;52.75;102572.75;4932808;28;97391;-70
2022/11/11 08:03:52;;;;;;;18.58;3.22;;;;;;;14.79;52.88;102581.13;4928414;28;98995;-69
2022/11/11 08:06:20;;;;;;;11.85;3.00;;;;;;;15.02;52.33;102586.78;4935114;28;98881;-70
2022/11/11 08:08:47;;;;;;;17.70;2.95;;;;;;;15.08;52.06;102586.63;4933868;28;97696;-71
2022/11/11 08:11:15;;;;;;;12.23;3.38;;;;;;;15.00;52.34;102582.38;4931961;28;98743;-70
2022/11/11 08:13:42;;;;;;;11.30;3.45;;;;;;;15.09;52.34;102590.16;4931218;28;100492;-68
2022/11/11 08:16:10;;;;;;;18.17;3.42;;;;;;;15.30;51.79;102586.94;4932636;28;98914;-71
2022/11/11 08:18:37;;;;;;;9.18;2.40;;;;;;;15.33;51.58;102583.31;4931201;28;98940;-70
2022/11/11 08:21:05;;;;;;;18.30;3.03;;;;;;;15.27;51.53;102591.47;4930979;28;97642;-68
2022/11/11 08:23:32;;;;;;;38.90;5.18;;;;;;;15.22;51.43;102596.06;4929571;28;98922;-69
2022/11/11 08:25:59;;;;;;;17.60;3.05;;;;;;;15.32;51.20;102601.09;4927420;28;99184;-70
2022/11/11 08:28:27;;;;;;;10.07;3.50;;;;;;;15.22;51.56;102602.25;4931786;28;98656;-69
2022/11/11 08:30:55;;;;;;;8.88;3.13;;;;;;;15.37;51.31;102606.28;4930809;28;98505;-70
2022/11/11 08:33:22;;;;;;;13.75;3.78;;;;;;;15.29;51.00;102602.97;4930287;28;99371;-70
2022/11/11 08:35:48;;;;;;;10.73;2.80;;;;;;;15.40;51.16;102608.88;4930571;28;100640;-70
2022/11/11 08:38:15;;;;;;;7.88;2.95;;;;;;;15.46;50.47;102617.59;4930821;28;97224;-69
2022/11/11 08:40:41;;;;;;;10.95;2.67;;;;;;;15.57;50.18;102621.78;4933741;28;97226;-70
2022/11/11 08:43:08;;;;;;;9.45;3.28;;;;;;;15.85;49.95;102617.47;4930652;28;99065;-70
2022/11/11 08:45:35;;;;;;;7.97;2.90;;;;;;;15.80;49.69;102625.59;4931090;28;99297;-70
2022/11/11 08:48:02;;;;;;;13.27;2.70;;;;;;;16.08;49.52;102627.50;4930077;28;97643;-68
2022/11/11 08:50:29;;;;;;;6.57;2.22;;;;;;;16.16;48.81;102642.31;4930545;28;97224;-70
2022/11/11 08:52:57;;;;;;;16.88;3.08;;;;;;;16.28;48.60;102644.63;4929125;28;99063;-70
2022/11/11 08:55:23;;;;;;;15.95;3.22;;;;;;;16.56;47.82;102647.38;4930817;28;101238;-69
2022/11/11 08:57:57;;;;;;;9.35;2.45;;;;;;;16.49;48.12;102653.81;4931416;28;98149;-69
2022/11/11 09:00:24;;;;;;;8.25;2.83;;;;;;;16.58;48.24;102650.00;4928618;28;97296;-70
2022/11/11 09:02:50;;;;;;;9.93;3.53;;;;;;;16.30;48.49;102645.47;4918326;28;99306;-69
2022/11/11 09:05:18;;;;;;;14.77;3.13;;;;;;;16.12;48.47;102655.81;4927773;28;98796;-69
2022/11/11 09:07:45;;;;;;;15.52;3.08;;;;;;;16.46;48.28;102661.91;4925513;28;98253;-70
2022/11/11 09:10:12;;;;;;;11.82;2.83;;;;;;;16.35;48.29;102670.22;4927788;28;96957;-69
2022/11/11 09:12:38;;;;;;;15.38;2.60;;;;;;;16.53;48.13;102663.47;4931548;28;101073;-68
2022/11/11 09:15:06;;;;;;;16.98;3.00;;;;;;;16.60;47.83;102670.41;4926883;28;99114;-71
2022/11/11 09:17:32;;;;;;;8.82;2.83;;;;;;;16.41;48.21;102673.66;4925996;28;96824;-69
2022/11/11 09:19:59;;;;;;;8.82;2.40;;;;;;;16.86;47.62;102672.28;4928348;28;97842;-69
2022/11/11 09:22:29;;;;;;;8.95;2.90;;;;;;;16.79;47.60;102670.72;4929543;28;99381;-69
2022/11/11 09:24:56;;;;;;;8.20;2.90;;;;;;;16.91;47.24;102673.00;4923955;28;99270;-69
2022/11/11 09:27:22;;;;;;;17.63;3.17;;;;;;;16.88;47.32;102665.09;4927278;28;96942;-70
2022/11/11 09:29:49;;;;;;;12.05;2.70;;;;;;;16.83;47.13;102659.03;4924858;28;97035;-70
2022/11/11 09:32:16;;;;;;;24.77;3.45;;;;;;;16.66;47.42;102654.22;4926075;28;97203;-69
2022/11/11 09:34:42;;;;;;;15.13;3.03;;;;;;;16.78;47.69;102662.75;4927121;28;99040;-69
2022/11/11 09:37:09;;;;;;;11.95;3.38;;;;;;;16.82;47.51;102675.97;4928673;28;98701;-69
2022/11/11 09:39:36;;;;;;;27.80;5.05;;;;;;;16.85;47.16;102681.22;4933764;28;96854;-68
2022/11/11 09:42:13;;;;;;;15.27;3.28;;;;;;;16.90;46.97;102684.59;4927767;28;98212;-69
2022/11/11 09:45:00;;;;;;;59.30;5.90;;;;;;;17.17;46.37;102687.31;4923314;28;99148;-70
2022/11/11 09:47:36;;;;;;;16.95;2.97;;;;;;;17.03;46.77;102691.31;4925289;28;97154;-70
2022/11/11 09:50:05;;;;;;;21.35;3.67;;;;;;;17.03;46.37;102683.31;4929013;28;96901;-70
2022/11/11 09:52:37;;;;;;;16.05;3.03;;;;;;;17.20;46.27;102689.91;4926852;28;98917;-68
2022/11/11 09:55:19;;;;;;;6.20;2.15;;;;;;;17.12;46.39;102688.38;4926651;28;99094;-69
2022/11/11 09:57:51;;;;;;;29.02;3.20;;;;;;;17.22;46.14;102690.72;4928743;28;97259;-70
2022/11/11 10:00:21;;;;;;;27.45;3.75;;;;;;;17.42;45.68;102693.59;4925070;28;97701;-68
2022/11/11 10:02:52;;;;;;;8.25;2.63;;;;;;;17.29;46.04;102706.50;4929800;28;99352;-70
2022/11/11 10:05:24;;;;;;;19.98;3.03;;;;;;;17.43;45.95;102698.91;4925481;28;99461;-70
2022/11/11 10:07:55;;;;;;;36.40;3.35;;;;;;;17.51;45.75;102704.88;4929358;28;97421;-71
2022/11/11 10:10:29;;;;;;;22.77;2.88;;;;;;;17.54;45.10;102707.44;4929439;28;97359;-71
2022/11/11 10:12:58;;;;;;;16.92;2.83;;;;;;;17.44;45.64;102703.34;4929928;28;101480;-70
2022/11/11 10:15:29;;;;;;;11.80;2.55;;;;;;;17.22;46.22;102701.41;4924986;28;98065;-70
2022/11/11 10:18:17;;;;;;;22.10;2.95;;;;;;;17.66;45.51;102703.50;4927637;28;96889;-71
2022/11/11 10:20:49;;;;;;;9.15;2.67;;;;;;;17.70;45.13;102698.94;4925743;28;96895;-69
2022/11/11 10:23:18;;;;;;;16.35;2.50;;;;;;;17.35;45.97;102694.72;4929556;28;99216;-71
2022/11/11 10:25:53;;;;;;;8.05;2.90;;;;;;;17.40;45.73;102706.13;4927537;28;97960;-70
2022/11/11 10:28:22;;;;;;;14.32;3.97;;;;;;;17.68;45.47;102700.78;4928577;28;97359;-69
2022/11/11 10:30:51;;;;;;;15.38;3.63;;;;;;;17.67;45.37;102705.25;4931122;28;97490;-69
2022/11/11 10:33:23;;;;;;;14.13;3.00;;;;;;;17.73;45.48;102709.50;4925704;28;99663;-69
2022/11/11 10:35:50;;;;;;;13.80;3.15;;;;;;;17.93;45.30;102704.34;4924660;28;101435;-69
2022/11/11 10:38:31;;;;;;;5.78;2.65;;;;;;;17.73;44.72;102705.03;4926755;28;96862;-70
2022/11/11 10:41:05;;;;;;;8.32;2.38;;;;;;;17.74;45.34;102708.59;4926426;28;99866;-70
2022/11/11 10:43:32;;;;;;;9.80;3.03;;;;;;;17.70;44.92;102696.25;4931536;28;99278;-71
2022/11/11 10:46:04;;;;;;;5.13;2.38;;;;;;;17.92;44.79;102698.13;4930566;28;98839;-70
2022/11/11 10:48:40;;;;;;;9.90;2.97;;;;;;;17.96;44.43;102680.19;4928733;28;97173;-71
2022/11/11 10:51:07;;;;;;;12.20;2.95;;;;;;;17.95;44.52;102694.47;4926048;28;97651;-69
2022/11/11 10:53:38;;;;;;;9.10;2.70;;;;;;;17.56;44.98;102694.03;4928302;28;99249;-70
2022/11/11 10:56:13;;;;;;;10.30;3.88;;;;;;;17.93;44.39;102690.97;4925520;28;98914;-69
2022/11/11 10:58:47;;;;;;;11.57;3.72;;;;;;;17.79;44.52;102683.44;4917446;28;98504;-69
2022/11/11 11:01:20;;;;;;;11.60;3.75;;;;;;;18.15;43.73;102688.41;4927470;28;97200;-69
2022/11/11 11:03:52;;;;;;;5.63;2.05;;;;;;;17.83;44.09;102685.09;4927619;28;99367;-69
2022/11/11 11:06:24;;;;;;;7.15;2.45;;;;;;;17.92;44.03;102683.88;4927310;28;99890;-69
2022/11/11 11:08:55;;;;;;;9.43;2.60;;;;;;;17.88;44.16;102685.78;4925264;28;97331;-69
2022/11/11 11:11:29;;;;;;;9.98;2.28;;;;;;;17.86;44.19;102676.06;4926908;28;98831;-69
2022/11/11 11:14:00;;;;;;;9.07;2.28;;;;;;;18.06;43.94;102662.84;4923893;28;99022;-69
2022/11/11 11:16:33;;;;;;;10.90;2.40;;;;;;;17.95;44.09;102665.06;4925884;28;99230;-70
2022/11/11 11:19:17;;;;;;;4.22;1.45;;;;;;;17.80;44.59;102666.47;4924080;28;97984;-69
2022/11/11 11:21:49;;;;;;;6.38;1.80;;;;;;;17.89;44.38;102658.13;4928213;28;96904;-68
2022/11/11 11:24:20;;;;;;;5.75;2.03;;;;;;;17.96;43.96;102664.13;4926242;28;100932;-69
2022/11/11 11:26:51;;;;;;;7.55;2.60;;;;;;;18.01;43.96;102658.59;4926924;28;99340;-70
2022/11/11 11:29:26;;;;;;;5.88;1.75;;;;;;;17.98;43.81;102656.06;4926949;28;96818;-71
2022/11/11 11:31:53;;;;;;;7.88;1.55;;;;;;;18.00;43.85;102654.19;4927535;28;96792;-69
2022/11/11 11:34:20;;;;;;;7.93;1.70;;;;;;;17.98;43.63;102654.25;4927866;28;99285;-69
2022/11/11 11:36:59;;;;;;;6.03;2.15;;;;;;;18.05;43.50;102653.06;4928392;28;98729;-69
2022/11/11 11:39:34;;;;;;;6.35;1.85;;;;;;;18.01;44.13;102654.13;4925471;28;97094;-69
2022/11/11 11:42:02;;;;;;;7.00;2.03;;;;;;;18.23;43.38;102651.53;4928645;28;98663;-68
2022/11/11 11:44:30;;;;;;;6.28;1.77;;;;;;;18.16;43.57;102647.34;4928467;28;99474;-69
2022/11/11 11:47:07;;;;;;;3.40;1.65;;;;;;;18.26;43.47;102641.59;4928245;28;101718;-69
2022/11/11 11:50:01;;;;;;;5.85;1.83;;;;;;;18.04;43.71;102631.75;4925005;28;98245;-68
2022/11/11 11:52:37;;;;;;;7.63;1.88;;;;;;;18.08;43.88;102633.38;4927447;28;96863;-71
2022/11/11 11:55:12;;;;;;;7.93;1.83;;;;;;;18.07;43.78;102634.31;4925857;28;99031;-69
2022/11/11 11:57:53;;;;;;;6.07;1.73;;;;;;;18.08;43.56;102641.41;4928874;28;98894;-71
2022/11/11 12:00:22;;;;;;;5.88;1.92;;;;;;;18.16;43.45;102644.69;4926250;28;98201;-69
2022/11/11 12:03:23;;;;;;;7.63;1.92;;;;;;;18.26;43.42;102641.59;4926833;28;96887;-69
2022/11/11 12:05:56;;;;;;;6.22;1.77;;;;;;;18.04;43.47;102639.78;4928678;28;99076;-70
2022/11/11 12:08:50;;;;;;;5.25;1.60;;;;;;;18.14;43.29;102646.53;4927148;28;99099;-70
2022/11/11 12:11:22;;;;;;;4.97;1.58;;;;;;;18.06;43.58;102646.81;4926919;28;98887;-69
2022/11/11 12:14:06;;;;;;;7.70;2.03;;;;;;;18.28;43.41;102634.38;4927740;28;96792;-70
2022/11/11 12:16:40;;;;;;;6.78;2.15;;;;;;;18.21;42.98;102637.34;4924161;28;99377;-69
2022/11/11 12:19:25;;;;;;;8.13;2.00;;;;;;;18.46;42.93;102629.25;4926138;28;100637;-69
2022/11/11 12:21:59;;;;;;;7.05;1.77;;;;;;;18.37;42.89;102633.16;4928498;28;97120;-69
2022/11/11 12:24:44;;;;;;;5.50;1.70;;;;;;;18.37;42.56;102626.94;4925348;28;97375;-69
2022/11/11 12:27:19;;;;;;;4.88;1.42;;;;;;;18.34;42.40;102641.31;4927341;28;101184;-69
2022/11/11 12:30:01;;;;;;;7.40;1.63;;;;;;;18.46;41.97;102632.78;4925816;28;99605;-68
2022/11/11 12:32:41;;;;;;;9.30;1.95;;;;;;;18.44;41.73;102640.03;4929907;28;96769;-68
2022/11/11 12:35:25;;;;;;;4.53;1.38;;;;;;;18.46;41.43;102632.78;4920766;28;96927;-69
2022/11/11 12:38:04;;;;;;;5.60;1.70;;;;;;;18.51;41.89;102636.16;4928897;28;99012;-69
2022/11/11 12:40:41;;;;;;;3.85;1.70;;;;;;;18.54;41.04;102640.53;4928770;28;98942;-69
2022/11/11 12:43:19;;;;;;;4.75;1.42;;;;;;;18.49;41.54;102634.50;4931797;28;96957;-70
2022/11/11 12:45:51;;;;;;;6.15;1.42;;;;;;;18.55;41.32;102631.59;4930049;28;98781;-69
2022/11/11 12:48:36;;;;;;;3.75;1.70;;;;;;;18.67;41.10;102633.81;4927222;28;99342;-69